Strona główna
METAR-TAF:

METAR-TAF

Lotnisko :

Morrisville-Stowe State Airport

Morrisville, Vermont, Stany Zjednoczone

Szerokość geograficzna: 44-32-10N, Długość geograficzna: 072-36-58W, wysokość: 223 m

Aktualna obserwacja pogody

Raport powstał 33 minut temu, godzina 00:54 UTC
Cisza
Temperatura -18°C
Wilgotność 77%
Ciśnienie 1026 hPa
Widzialność: 16.1 km

METAR: KMVL 210054Z AUTO 00000KT 10SM M18/M21 A3031 RMK AO2 SLP285 I1000 T11831206

czas: 20:27 (01:27 UTC)


TAF: brakujący

Obserwacja i prognoza pogody dla ponad 4000 lotnisk (raport METAR i TAF).

Dostępne stacje oznaczono żółtymi i czerwonymi punktami na mapie.

Najedź kursorem aby zobaczyć nazwę stacji.

Kliknij aby zobaczyć obserwacje i prognozy pogody.

Aby zmienić mapę: kliknij na zielony przycisk z czarnym krzyżykiem, aby powiększyć; na zielony przycisk z myślnikiem, aby pomniejszyć; na zielone strzałki, aby przejść do map sąsiednich.


METAR-TAF: